sensor_id;sensor_type;location;lat;lon;timestamp;P1;durP1;ratioP1;P2;durP2;ratioP2
8642;SDS011;4359;49.358;11.256;2024-03-08T00:01:47;42.13;;;21.40;;
8642;SDS011;4359;49.358;11.256;2024-03-08T00:04:13;46.23;;;21.83;;
8642;SDS011;4359;49.358;11.256;2024-03-08T00:06:40;40.77;;;21.80;;
8642;SDS011;4359;49.358;11.256;2024-03-08T00:09:06;47.27;;;21.10;;
8642;SDS011;4359;49.358;11.256;2024-03-08T00:11:33;43.80;;;21.60;;
8642;SDS011;4359;49.358;11.256;2024-03-08T00:14:00;44.10;;;22.43;;
8642;SDS011;4359;49.358;11.256;2024-03-08T00:18:51;39.87;;;20.57;;
8642;SDS011;4359;49.358;11.256;2024-03-08T00:21:16;42.07;;;21.23;;
8642;SDS011;4359;49.358;11.256;2024-03-08T00:26:08;42.67;;;21.10;;
8642;SDS011;4359;49.358;11.256;2024-03-08T00:30:59;43.73;;;22.30;;
8642;SDS011;4359;49.358;11.256;2024-03-08T00:33:25;37.90;;;20.77;;
8642;SDS011;4359;49.358;11.256;2024-03-08T00:35:52;43.80;;;23.10;;
8642;SDS011;4359;49.358;11.256;2024-03-08T00:38:18;47.63;;;24.37;;
8642;SDS011;4359;49.358;11.256;2024-03-08T00:43:10;43.33;;;21.97;;
8642;SDS011;4359;49.358;11.256;2024-03-08T00:45:35;43.53;;;22.13;;
8642;SDS011;4359;49.358;11.256;2024-03-08T00:48:02;43.80;;;23.23;;
8642;SDS011;4359;49.358;11.256;2024-03-08T00:50:28;47.00;;;23.83;;
8642;SDS011;4359;49.358;11.256;2024-03-08T00:55:19;45.03;;;21.80;;
8642;SDS011;4359;49.358;11.256;2024-03-08T01:00:11;41.87;;;21.53;;
8642;SDS011;4359;49.358;11.256;2024-03-08T01:02:40;41.17;;;21.87;;
8642;SDS011;4359;49.358;11.256;2024-03-08T01:05:06;47.80;;;23.77;;
8642;SDS011;4359;49.358;11.256;2024-03-08T01:07:33;47.77;;;23.10;;
8642;SDS011;4359;49.358;11.256;2024-03-08T01:10:00;47.03;;;23.80;;
8642;SDS011;4359;49.358;11.256;2024-03-08T01:12:26;49.13;;;24.70;;
8642;SDS011;4359;49.358;11.256;2024-03-08T01:17:17;45.17;;;23.30;;
8642;SDS011;4359;49.358;11.256;2024-03-08T01:22:10;44.92;;;22.00;;
8642;SDS011;4359;49.358;11.256;2024-03-08T01:24:35;49.77;;;22.97;;
8642;SDS011;4359;49.358;11.256;2024-03-08T01:27:02;44.73;;;23.13;;
8642;SDS011;4359;49.358;11.256;2024-03-08T01:29:28;46.23;;;23.47;;
8642;SDS011;4359;49.358;11.256;2024-03-08T01:31:57;46.10;;;22.87;;
8642;SDS011;4359;49.358;11.256;2024-03-08T01:34:25;49.73;;;24.73;;
8642;SDS011;4359;49.358;11.256;2024-03-08T01:36:53;48.53;;;24.63;;
8642;SDS011;4359;49.358;11.256;2024-03-08T01:39:20;53.30;;;24.53;;
8642;SDS011;4359;49.358;11.256;2024-03-08T01:41:47;54.90;;;25.47;;
8642;SDS011;4359;49.358;11.256;2024-03-08T01:44:12;51.23;;;24.70;;
8642;SDS011;4359;49.358;11.256;2024-03-08T01:46:43;50.47;;;23.57;;
8642;SDS011;4359;49.358;11.256;2024-03-08T01:49:09;54.70;;;24.63;;
8642;SDS011;4359;49.358;11.256;2024-03-08T01:51:36;47.93;;;23.97;;
8642;SDS011;4359;49.358;11.256;2024-03-08T01:54:05;47.83;;;23.80;;
8642;SDS011;4359;49.358;11.256;2024-03-08T01:56:31;51.73;;;25.33;;
8642;SDS011;4359;49.358;11.256;2024-03-08T01:58:57;53.57;;;25.00;;
8642;SDS011;4359;49.358;11.256;2024-03-08T02:01:24;61.77;;;27.53;;
8642;SDS011;4359;49.358;11.256;2024-03-08T02:03:50;50.67;;;26.07;;
8642;SDS011;4359;49.358;11.256;2024-03-08T02:06:16;60.43;;;28.13;;
8642;SDS011;4359;49.358;11.256;2024-03-08T02:13:34;114.00;;;52.03;;
8642;SDS011;4359;49.358;11.256;2024-03-08T02:16:00;66.70;;;31.87;;
8642;SDS011;4359;49.358;11.256;2024-03-08T02:18:27;63.20;;;27.50;;
8642;SDS011;4359;49.358;11.256;2024-03-08T02:20:54;57.43;;;26.10;;
8642;SDS011;4359;49.358;11.256;2024-03-08T02:23:20;53.33;;;25.00;;
8642;SDS011;4359;49.358;11.256;2024-03-08T02:25:47;50.47;;;23.87;;
8642;SDS011;4359;49.358;11.256;2024-03-08T02:28:13;54.63;;;24.70;;
8642;SDS011;4359;49.358;11.256;2024-03-08T02:30:39;55.03;;;25.17;;
8642;SDS011;4359;49.358;11.256;2024-03-08T02:33:06;49.23;;;23.73;;
8642;SDS011;4359;49.358;11.256;2024-03-08T02:35:32;54.47;;;24.83;;
8642;SDS011;4359;49.358;11.256;2024-03-08T02:37:58;57.30;;;26.43;;
8642;SDS011;4359;49.358;11.256;2024-03-08T02:40:24;56.23;;;26.17;;
8642;SDS011;4359;49.358;11.256;2024-03-08T02:42:50;129.53;;;64.37;;
8642;SDS011;4359;49.358;11.256;2024-03-08T02:45:16;173.07;;;87.43;;
8642;SDS011;4359;49.358;11.256;2024-03-08T02:50:07;85.37;;;39.30;;
8642;SDS011;4359;49.358;11.256;2024-03-08T02:55:00;63.35;;;29.45;;
8642;SDS011;4359;49.358;11.256;2024-03-08T02:57:26;108.03;;;54.50;;
8642;SDS011;4359;49.358;11.256;2024-03-08T02:59:53;69.40;;;35.03;;
8642;SDS011;4359;49.358;11.256;2024-03-08T03:02:19;64.37;;;28.70;;
8642;SDS011;4359;49.358;11.256;2024-03-08T03:04:44;62.43;;;28.17;;
8642;SDS011;4359;49.358;11.256;2024-03-08T03:09:36;60.60;;;27.10;;
8642;SDS011;4359;49.358;11.256;2024-03-08T03:12:02;62.30;;;28.53;;
8642;SDS011;4359;49.358;11.256;2024-03-08T03:14:27;58.37;;;28.13;;
8642;SDS011;4359;49.358;11.256;2024-03-08T03:16:53;61.07;;;29.40;;
8642;SDS011;4359;49.358;11.256;2024-03-08T03:19:19;69.27;;;30.20;;
8642;SDS011;4359;49.358;11.256;2024-03-08T03:21:45;65.07;;;30.13;;
8642;SDS011;4359;49.358;11.256;2024-03-08T03:24:12;67.07;;;30.27;;
8642;SDS011;4359;49.358;11.256;2024-03-08T03:26:41;66.97;;;29.37;;
8642;SDS011;4359;49.358;11.256;2024-03-08T03:29:08;74.10;;;32.90;;
8642;SDS011;4359;49.358;11.256;2024-03-08T03:31:36;64.00;;;29.93;;
8642;SDS011;4359;49.358;11.256;2024-03-08T03:36:29;67.05;;;29.52;;
8642;SDS011;4359;49.358;11.256;2024-03-08T03:38:55;70.10;;;30.63;;
8642;SDS011;4359;49.358;11.256;2024-03-08T03:41:38;67.23;;;29.87;;
8642;SDS011;4359;49.358;11.256;2024-03-08T03:44:04;65.43;;;30.40;;
8642;SDS011;4359;49.358;11.256;2024-03-08T03:46:31;63.73;;;30.70;;
8642;SDS011;4359;49.358;11.256;2024-03-08T03:48:57;62.63;;;29.73;;
8642;SDS011;4359;49.358;11.256;2024-03-08T03:53:49;55.65;;;27.05;;
8642;SDS011;4359;49.358;11.256;2024-03-08T03:56:15;58.60;;;27.73;;
8642;SDS011;4359;49.358;11.256;2024-03-08T03:58:40;58.57;;;28.20;;
8642;SDS011;4359;49.358;11.256;2024-03-08T04:01:07;59.63;;;27.80;;
8642;SDS011;4359;49.358;11.256;2024-03-08T04:03:33;58.87;;;28.37;;
8642;SDS011;4359;49.358;11.256;2024-03-08T04:08:24;53.03;;;26.13;;
8642;SDS011;4359;49.358;11.256;2024-03-08T04:13:16;54.47;;;26.07;;
8642;SDS011;4359;49.358;11.256;2024-03-08T04:18:10;54.77;;;25.60;;
8642;SDS011;4359;49.358;11.256;2024-03-08T04:23:02;49.93;;;25.17;;
8642;SDS011;4359;49.358;11.256;2024-03-08T04:25:27;50.23;;;24.37;;
8642;SDS011;4359;49.358;11.256;2024-03-08T04:27:53;48.23;;;24.63;;
8642;SDS011;4359;49.358;11.256;2024-03-08T04:30:19;50.37;;;24.80;;
8642;SDS011;4359;49.358;11.256;2024-03-08T04:32:46;54.90;;;25.60;;
8642;SDS011;4359;49.358;11.256;2024-03-08T04:35:12;52.37;;;26.40;;
8642;SDS011;4359;49.358;11.256;2024-03-08T04:37:38;55.53;;;26.97;;
8642;SDS011;4359;49.358;11.256;2024-03-08T04:40:04;58.10;;;28.57;;
8642;SDS011;4359;49.358;11.256;2024-03-08T04:42:30;57.63;;;29.27;;
8642;SDS011;4359;49.358;11.256;2024-03-08T04:44:57;61.50;;;29.80;;
8642;SDS011;4359;49.358;11.256;2024-03-08T04:49:49;60.17;;;28.43;;
8642;SDS011;4359;49.358;11.256;2024-03-08T04:52:15;60.00;;;28.83;;
8642;SDS011;4359;49.358;11.256;2024-03-08T04:54:41;56.57;;;28.63;;
8642;SDS011;4359;49.358;11.256;2024-03-08T04:57:09;58.93;;;29.47;;
8642;SDS011;4359;49.358;11.256;2024-03-08T04:59:36;61.87;;;30.03;;
8642;SDS011;4359;49.358;11.256;2024-03-08T05:02:01;60.47;;;30.50;;
8642;SDS011;4359;49.358;11.256;2024-03-08T05:06:54;58.15;;;27.77;;
8642;SDS011;4359;49.358;11.256;2024-03-08T05:09:20;60.73;;;28.77;;
8642;SDS011;4359;49.358;11.256;2024-03-08T05:14:12;60.33;;;28.33;;
8642;SDS011;4359;49.358;11.256;2024-03-08T05:16:45;64.67;;;31.57;;
8642;SDS011;4359;49.358;11.256;2024-03-08T05:19:20;60.10;;;29.60;;
8642;SDS011;4359;49.358;11.256;2024-03-08T05:21:46;58.77;;;29.53;;
8642;SDS011;4359;49.358;11.256;2024-03-08T05:24:13;54.50;;;27.20;;
8642;SDS011;4359;49.358;11.256;2024-03-08T05:26:40;58.57;;;27.63;;
8642;SDS011;4359;49.358;11.256;2024-03-08T05:29:06;59.43;;;28.83;;
8642;SDS011;4359;49.358;11.256;2024-03-08T05:31:52;63.90;;;29.63;;
8642;SDS011;4359;49.358;11.256;2024-03-08T05:34:17;56.37;;;28.53;;
8642;SDS011;4359;49.358;11.256;2024-03-08T05:36:44;57.00;;;28.67;;
8642;SDS011;4359;49.358;11.256;2024-03-08T05:39:14;58.13;;;28.83;;
8642;SDS011;4359;49.358;11.256;2024-03-08T05:41:40;58.60;;;29.93;;
8642;SDS011;4359;49.358;11.256;2024-03-08T05:44:06;55.37;;;28.43;;
8642;SDS011;4359;49.358;11.256;2024-03-08T05:46:33;61.03;;;30.33;;
8642;SDS011;4359;49.358;11.256;2024-03-08T05:48:59;55.83;;;29.87;;
8642;SDS011;4359;49.358;11.256;2024-03-08T05:53:53;62.00;;;29.57;;
8642;SDS011;4359;49.358;11.256;2024-03-08T05:56:20;63.30;;;30.70;;
8642;SDS011;4359;49.358;11.256;2024-03-08T05:58:48;58.93;;;30.03;;
8642;SDS011;4359;49.358;11.256;2024-03-08T06:01:15;72.00;;;33.33;;
8642;SDS011;4359;49.358;11.256;2024-03-08T06:03:40;63.90;;;30.80;;
8642;SDS011;4359;49.358;11.256;2024-03-08T06:06:13;60.73;;;31.20;;
8642;SDS011;4359;49.358;11.256;2024-03-08T06:08:39;69.33;;;32.13;;
8642;SDS011;4359;49.358;11.256;2024-03-08T06:11:05;68.53;;;33.17;;
8642;SDS011;4359;49.358;11.256;2024-03-08T06:15:57;57.53;;;29.20;;
8642;SDS011;4359;49.358;11.256;2024-03-08T06:20:48;59.83;;;29.60;;
8642;SDS011;4359;49.358;11.256;2024-03-08T06:25:43;69.60;;;31.73;;
8642;SDS011;4359;49.358;11.256;2024-03-08T06:28:09;69.33;;;34.10;;
8642;SDS011;4359;49.358;11.256;2024-03-08T06:33:01;59.83;;;29.33;;
8642;SDS011;4359;49.358;11.256;2024-03-08T06:37:52;60.17;;;30.67;;
8642;SDS011;4359;49.358;11.256;2024-03-08T06:42:44;62.13;;;29.87;;
8642;SDS011;4359;49.358;11.256;2024-03-08T06:45:10;62.93;;;31.47;;
8642;SDS011;4359;49.358;11.256;2024-03-08T06:47:37;59.93;;;30.20;;
8642;SDS011;4359;49.358;11.256;2024-03-08T06:52:29;56.80;;;29.10;;
8642;SDS011;4359;49.358;11.256;2024-03-08T06:57:22;51.55;;;26.90;;
8642;SDS011;4359;49.358;11.256;2024-03-08T07:02:14;49.17;;;25.60;;
8642;SDS011;4359;49.358;11.256;2024-03-08T07:04:39;47.80;;;25.50;;
8642;SDS011;4359;49.358;11.256;2024-03-08T07:07:05;46.00;;;26.88;;
8642;SDS011;4359;49.358;11.256;2024-03-08T07:09:37;46.67;;;25.85;;
8642;SDS011;4359;49.358;11.256;2024-03-08T07:12:03;45.80;;;26.25;;
8642;SDS011;4359;49.358;11.256;2024-03-08T07:14:29;46.22;;;25.85;;
8642;SDS011;4359;49.358;11.256;2024-03-08T07:16:56;48.58;;;25.90;;
8642;SDS011;4359;49.358;11.256;2024-03-08T07:21:47;44.75;;;24.63;;
8642;SDS011;4359;49.358;11.256;2024-03-08T07:26:42;42.38;;;23.13;;
8642;SDS011;4359;49.358;11.256;2024-03-08T07:29:08;41.60;;;23.25;;
8642;SDS011;4359;49.358;11.256;2024-03-08T07:34:02;41.70;;;23.52;;
8642;SDS011;4359;49.358;11.256;2024-03-08T07:38:54;41.47;;;23.90;;
8642;SDS011;4359;49.358;11.256;2024-03-08T07:41:20;41.00;;;22.23;;
8642;SDS011;4359;49.358;11.256;2024-03-08T07:43:45;42.40;;;24.30;;
8642;SDS011;4359;49.358;11.256;2024-03-08T07:46:11;38.42;;;21.88;;
8642;SDS011;4359;49.358;11.256;2024-03-08T07:48:38;44.33;;;22.35;;
8642;SDS011;4359;49.358;11.256;2024-03-08T07:51:05;37.90;;;21.70;;
8642;SDS011;4359;49.358;11.256;2024-03-08T07:55:56;38.37;;;21.20;;
8642;SDS011;4359;49.358;11.256;2024-03-08T08:00:48;38.25;;;21.65;;
8642;SDS011;4359;49.358;11.256;2024-03-08T08:03:14;38.75;;;21.40;;
8642;SDS011;4359;49.358;11.256;2024-03-08T08:05:41;38.17;;;21.67;;
8642;SDS011;4359;49.358;11.256;2024-03-08T08:10:32;35.70;;;20.40;;
8642;SDS011;4359;49.358;11.256;2024-03-08T08:12:58;36.63;;;20.95;;
8642;SDS011;4359;49.358;11.256;2024-03-08T08:17:49;33.05;;;19.02;;
8642;SDS011;4359;49.358;11.256;2024-03-08T08:20:16;36.10;;;19.63;;
8642;SDS011;4359;49.358;11.256;2024-03-08T08:22:43;31.15;;;19.15;;
8642;SDS011;4359;49.358;11.256;2024-03-08T08:25:09;39.22;;;20.08;;
8642;SDS011;4359;49.358;11.256;2024-03-08T08:27:38;36.72;;;20.15;;
8642;SDS011;4359;49.358;11.256;2024-03-08T08:30:09;31.88;;;18.55;;
8642;SDS011;4359;49.358;11.256;2024-03-08T08:32:36;31.63;;;19.35;;
8642;SDS011;4359;49.358;11.256;2024-03-08T08:35:02;37.35;;;19.00;;
8642;SDS011;4359;49.358;11.256;2024-03-08T08:37:30;30.48;;;18.00;;
8642;SDS011;4359;49.358;11.256;2024-03-08T08:39:56;31.60;;;17.45;;
8642;SDS011;4359;49.358;11.256;2024-03-08T08:42:22;32.90;;;18.95;;
8642;SDS011;4359;49.358;11.256;2024-03-08T08:44:48;30.98;;;17.20;;
8642;SDS011;4359;49.358;11.256;2024-03-08T08:47:15;32.47;;;17.67;;
8642;SDS011;4359;49.358;11.256;2024-03-08T08:49:44;31.00;;;17.50;;
8642;SDS011;4359;49.358;11.256;2024-03-08T08:52:11;28.10;;;16.30;;
8642;SDS011;4359;49.358;11.256;2024-03-08T08:57:02;32.10;;;16.75;;
8642;SDS011;4359;49.358;11.256;2024-03-08T08:59:32;27.25;;;16.13;;
8642;SDS011;4359;49.358;11.256;2024-03-08T09:02:01;33.17;;;17.75;;
8642;SDS011;4359;49.358;11.256;2024-03-08T09:04:28;26.42;;;16.92;;
8642;SDS011;4359;49.358;11.256;2024-03-08T09:06:54;29.92;;;16.38;;
8642;SDS011;4359;49.358;11.256;2024-03-08T09:09:20;27.50;;;16.48;;
8642;SDS011;4359;49.358;11.256;2024-03-08T09:11:47;27.38;;;16.88;;
8642;SDS011;4359;49.358;11.256;2024-03-08T09:14:12;39.03;;;17.95;;
8642;SDS011;4359;49.358;11.256;2024-03-08T09:16:39;28.52;;;17.13;;
8642;SDS011;4359;49.358;11.256;2024-03-08T09:19:05;28.30;;;16.35;;
8642;SDS011;4359;49.358;11.256;2024-03-08T09:21:31;28.55;;;16.67;;
8642;SDS011;4359;49.358;11.256;2024-03-08T09:23:57;26.17;;;15.00;;
8642;SDS011;4359;49.358;11.256;2024-03-08T09:26:23;27.70;;;15.63;;
8642;SDS011;4359;49.358;11.256;2024-03-08T09:28:49;27.13;;;16.42;;
8642;SDS011;4359;49.358;11.256;2024-03-08T09:31:14;30.63;;;16.88;;
8642;SDS011;4359;49.358;11.256;2024-03-08T09:33:41;25.40;;;15.93;;
8642;SDS011;4359;49.358;11.256;2024-03-08T09:36:07;26.90;;;16.35;;
8642;SDS011;4359;49.358;11.256;2024-03-08T09:38:33;25.15;;;15.25;;
8642;SDS011;4359;49.358;11.256;2024-03-08T09:41:02;25.75;;;16.15;;
8642;SDS011;4359;49.358;11.256;2024-03-08T09:43:29;27.70;;;15.90;;
8642;SDS011;4359;49.358;11.256;2024-03-08T09:45:55;27.10;;;16.88;;
8642;SDS011;4359;49.358;11.256;2024-03-08T09:48:22;25.05;;;15.55;;
8642;SDS011;4359;49.358;11.256;2024-03-08T09:50:48;28.90;;;15.57;;
8642;SDS011;4359;49.358;11.256;2024-03-08T09:53:14;29.08;;;17.02;;
8642;SDS011;4359;49.358;11.256;2024-03-08T09:55:41;25.73;;;15.45;;
8642;SDS011;4359;49.358;11.256;2024-03-08T09:58:10;31.02;;;16.63;;
8642;SDS011;4359;49.358;11.256;2024-03-08T10:00:42;27.58;;;15.20;;
8642;SDS011;4359;49.358;11.256;2024-03-08T10:03:08;27.25;;;16.10;;
8642;SDS011;4359;49.358;11.256;2024-03-08T10:05:35;29.50;;;15.25;;
8642;SDS011;4359;49.358;11.256;2024-03-08T10:08:01;27.42;;;15.45;;
8642;SDS011;4359;49.358;11.256;2024-03-08T10:10:27;23.95;;;14.60;;
8642;SDS011;4359;49.358;11.256;2024-03-08T10:12:53;25.90;;;15.63;;
8642;SDS011;4359;49.358;11.256;2024-03-08T10:15:20;23.00;;;14.18;;
8642;SDS011;4359;49.358;11.256;2024-03-08T10:17:46;29.35;;;14.35;;
8642;SDS011;4359;49.358;11.256;2024-03-08T10:20:15;27.58;;;14.45;;
8642;SDS011;4359;49.358;11.256;2024-03-08T10:22:42;21.13;;;13.02;;
8642;SDS011;4359;49.358;11.256;2024-03-08T10:25:10;22.40;;;14.10;;
8642;SDS011;4359;49.358;11.256;2024-03-08T10:27:37;23.90;;;13.73;;
8642;SDS011;4359;49.358;11.256;2024-03-08T10:30:04;23.00;;;13.32;;
8642;SDS011;4359;49.358;11.256;2024-03-08T10:32:35;24.83;;;14.18;;
8642;SDS011;4359;49.358;11.256;2024-03-08T10:35:01;24.35;;;12.70;;
8642;SDS011;4359;49.358;11.256;2024-03-08T10:37:27;22.55;;;12.88;;
8642;SDS011;4359;49.358;11.256;2024-03-08T10:40:03;21.08;;;12.43;;
8642;SDS011;4359;49.358;11.256;2024-03-08T10:42:41;27.00;;;13.80;;
8642;SDS011;4359;49.358;11.256;2024-03-08T10:45:38;19.48;;;12.05;;
8642;SDS011;4359;49.358;11.256;2024-03-08T10:50:53;16.77;;;9.80;;
8642;SDS011;4359;49.358;11.256;2024-03-08T10:53:19;20.33;;;9.23;;
8642;SDS011;4359;49.358;11.256;2024-03-08T10:55:47;15.88;;;9.23;;
8642;SDS011;4359;49.358;11.256;2024-03-08T10:58:22;14.55;;;9.05;;
8642;SDS011;4359;49.358;11.256;2024-03-08T11:00:52;16.75;;;9.32;;
8642;SDS011;4359;49.358;11.256;2024-03-08T11:06:10;14.52;;;8.88;;
8642;SDS011;4359;49.358;11.256;2024-03-08T11:08:43;14.50;;;8.80;;
8642;SDS011;4359;49.358;11.256;2024-03-08T11:11:23;12.30;;;7.95;;
8642;SDS011;4359;49.358;11.256;2024-03-08T11:13:52;14.00;;;8.60;;
8642;SDS011;4359;49.358;11.256;2024-03-08T11:19:45;12.27;;;6.57;;
8642;SDS011;4359;49.358;11.256;2024-03-08T11:22:20;21.77;;;8.02;;
8642;SDS011;4359;49.358;11.256;2024-03-08T11:24:53;11.85;;;7.00;;
8642;SDS011;4359;49.358;11.256;2024-03-08T11:40:52;20.95;;;10.70;;
8642;SDS011;4359;49.358;11.256;2024-03-08T11:43:17;16.17;;;10.55;;
8642;SDS011;4359;49.358;11.256;2024-03-08T11:45:44;20.48;;;10.82;;
8642;SDS011;4359;49.358;11.256;2024-03-08T11:48:10;18.67;;;10.05;;
8642;SDS011;4359;49.358;11.256;2024-03-08T11:50:38;18.08;;;10.73;;
8642;SDS011;4359;49.358;11.256;2024-03-08T11:53:03;19.65;;;10.50;;
8642;SDS011;4359;49.358;11.256;2024-03-08T11:55:33;21.60;;;10.73;;
8642;SDS011;4359;49.358;11.256;2024-03-08T11:58:03;20.25;;;12.13;;
8642;SDS011;4359;49.358;11.256;2024-03-08T12:00:33;56.88;;;28.50;;
8642;SDS011;4359;49.358;11.256;2024-03-08T12:03:03;17.08;;;10.10;;
8642;SDS011;4359;49.358;11.256;2024-03-08T12:05:30;15.48;;;9.40;;
8642;SDS011;4359;49.358;11.256;2024-03-08T12:07:58;18.23;;;9.93;;
8642;SDS011;4359;49.358;11.256;2024-03-08T12:10:24;17.92;;;9.98;;
8642;SDS011;4359;49.358;11.256;2024-03-08T12:12:51;15.18;;;9.55;;
8642;SDS011;4359;49.358;11.256;2024-03-08T12:15:18;15.18;;;9.60;;
8642;SDS011;4359;49.358;11.256;2024-03-08T12:17:48;15.18;;;8.35;;
8642;SDS011;4359;49.358;11.256;2024-03-08T12:40:31;14.27;;;8.95;;
8642;SDS011;4359;49.358;11.256;2024-03-08T12:42:59;15.35;;;9.25;;
8642;SDS011;4359;49.358;11.256;2024-03-08T13:09:00;13.55;;;8.38;;
8642;SDS011;4359;49.358;11.256;2024-03-08T13:11:30;14.23;;;9.23;;
8642;SDS011;4359;49.358;11.256;2024-03-08T13:14:01;17.40;;;8.52;;
8642;SDS011;4359;49.358;11.256;2024-03-08T13:16:29;13.23;;;9.13;;
8642;SDS011;4359;49.358;11.256;2024-03-08T13:18:54;14.98;;;9.15;;
8642;SDS011;4359;49.358;11.256;2024-03-08T13:21:22;13.85;;;8.30;;
8642;SDS011;4359;49.358;11.256;2024-03-08T13:23:49;13.85;;;8.82;;
8642;SDS011;4359;49.358;11.256;2024-03-08T13:26:15;15.70;;;8.93;;
8642;SDS011;4359;49.358;11.256;2024-03-08T13:32:03;14.18;;;8.65;;
8642;SDS011;4359;49.358;11.256;2024-03-08T13:34:31;13.57;;;8.93;;
8642;SDS011;4359;49.358;11.256;2024-03-08T13:37:00;16.20;;;8.82;;
8642;SDS011;4359;49.358;11.256;2024-03-08T13:39:25;14.00;;;8.75;;
8642;SDS011;4359;49.358;11.256;2024-03-08T13:41:51;13.35;;;8.10;;
8642;SDS011;4359;49.358;11.256;2024-03-08T13:44:17;14.10;;;8.68;;
8642;SDS011;4359;49.358;11.256;2024-03-08T13:46:42;16.92;;;10.52;;
8642;SDS011;4359;49.358;11.256;2024-03-08T13:49:08;14.23;;;8.75;;
8642;SDS011;4359;49.358;11.256;2024-03-08T14:05:03;16.73;;;9.77;;
8642;SDS011;4359;49.358;11.256;2024-03-08T14:07:29;15.93;;;9.55;;
8642;SDS011;4359;49.358;11.256;2024-03-08T14:09:55;17.63;;;10.50;;
8642;SDS011;4359;49.358;11.256;2024-03-08T14:12:20;16.17;;;9.30;;
8642;SDS011;4359;49.358;11.256;2024-03-08T14:14:46;14.93;;;9.35;;
8642;SDS011;4359;49.358;11.256;2024-03-08T14:17:11;17.65;;;9.30;;
8642;SDS011;4359;49.358;11.256;2024-03-08T14:19:42;13.57;;;9.15;;
8642;SDS011;4359;49.358;11.256;2024-03-08T14:22:08;14.85;;;8.65;;
8642;SDS011;4359;49.358;11.256;2024-03-08T14:24:37;11.95;;;7.90;;
8642;SDS011;4359;49.358;11.256;2024-03-08T14:27:04;15.57;;;8.55;;
8642;SDS011;4359;49.358;11.256;2024-03-08T14:29:33;16.88;;;8.40;;
8642;SDS011;4359;49.358;11.256;2024-03-08T14:31:59;12.52;;;7.75;;
8642;SDS011;4359;49.358;11.256;2024-03-08T14:34:26;14.05;;;8.13;;
8642;SDS011;4359;49.358;11.256;2024-03-08T14:36:55;12.40;;;8.05;;
8642;SDS011;4359;49.358;11.256;2024-03-08T14:39:21;15.05;;;9.15;;
8642;SDS011;4359;49.358;11.256;2024-03-08T14:41:51;15.15;;;8.93;;
8642;SDS011;4359;49.358;11.256;2024-03-08T14:44:19;13.85;;;8.70;;
8642;SDS011;4359;49.358;11.256;2024-03-08T14:46:45;15.38;;;10.30;;
8642;SDS011;4359;49.358;11.256;2024-03-08T14:49:11;13.32;;;8.85;;
8642;SDS011;4359;49.358;11.256;2024-03-08T14:51:37;13.55;;;9.30;;
8642;SDS011;4359;49.358;11.256;2024-03-08T14:54:03;16.77;;;9.02;;
8642;SDS011;4359;49.358;11.256;2024-03-08T14:56:32;24.67;;;9.90;;
8642;SDS011;4359;49.358;11.256;2024-03-08T14:58:58;16.80;;;9.10;;
8642;SDS011;4359;49.358;11.256;2024-03-08T15:01:24;15.35;;;9.18;;
8642;SDS011;4359;49.358;11.256;2024-03-08T15:03:54;15.60;;;9.05;;
8642;SDS011;4359;49.358;11.256;2024-03-08T15:06:20;14.00;;;8.65;;
8642;SDS011;4359;49.358;11.256;2024-03-08T15:08:47;14.23;;;9.05;;
8642;SDS011;4359;49.358;11.256;2024-03-08T15:11:13;16.13;;;9.68;;
8642;SDS011;4359;49.358;11.256;2024-03-08T15:13:46;14.85;;;8.57;;
8642;SDS011;4359;49.358;11.256;2024-03-08T15:16:16;16.00;;;9.43;;
8642;SDS011;4359;49.358;11.256;2024-03-08T15:18:43;17.73;;;10.10;;
8642;SDS011;4359;49.358;11.256;2024-03-08T15:21:13;14.48;;;9.40;;
8642;SDS011;4359;49.358;11.256;2024-03-08T15:23:50;15.75;;;10.68;;
8642;SDS011;4359;49.358;11.256;2024-03-08T15:26:17;18.70;;;11.98;;
8642;SDS011;4359;49.358;11.256;2024-03-08T15:28:43;15.82;;;11.00;;
8642;SDS011;4359;49.358;11.256;2024-03-08T15:31:10;16.73;;;10.70;;
8642;SDS011;4359;49.358;11.256;2024-03-08T15:33:38;18.05;;;11.63;;
8642;SDS011;4359;49.358;11.256;2024-03-08T15:36:13;17.00;;;11.35;;
8642;SDS011;4359;49.358;11.256;2024-03-08T15:38:41;20.35;;;12.70;;
8642;SDS011;4359;49.358;11.256;2024-03-08T15:41:08;20.25;;;12.70;;
8642;SDS011;4359;49.358;11.256;2024-03-08T15:43:38;17.70;;;12.13;;
8642;SDS011;4359;49.358;11.256;2024-03-08T15:46:07;18.42;;;11.40;;
8642;SDS011;4359;49.358;11.256;2024-03-08T15:48:34;25.58;;;14.48;;
8642;SDS011;4359;49.358;11.256;2024-03-08T15:51:04;19.30;;;11.93;;
8642;SDS011;4359;49.358;11.256;2024-03-08T15:53:34;26.45;;;15.50;;
8642;SDS011;4359;49.358;11.256;2024-03-08T15:56:04;19.80;;;11.88;;
8642;SDS011;4359;49.358;11.256;2024-03-08T15:58:36;19.52;;;12.18;;
8642;SDS011;4359;49.358;11.256;2024-03-08T16:01:02;18.10;;;11.95;;
8642;SDS011;4359;49.358;11.256;2024-03-08T16:03:31;18.60;;;11.80;;
8642;SDS011;4359;49.358;11.256;2024-03-08T16:05:57;19.33;;;11.45;;
8642;SDS011;4359;49.358;11.256;2024-03-08T16:08:23;17.92;;;11.85;;
8642;SDS011;4359;49.358;11.256;2024-03-08T16:10:50;22.08;;;11.85;;
8642;SDS011;4359;49.358;11.256;2024-03-08T16:13:21;20.77;;;11.23;;
8642;SDS011;4359;49.358;11.256;2024-03-08T16:15:48;17.83;;;11.02;;
8642;SDS011;4359;49.358;11.256;2024-03-08T16:18:15;17.08;;;11.00;;
8642;SDS011;4359;49.358;11.256;2024-03-08T16:20:42;20.80;;;11.50;;
8642;SDS011;4359;49.358;11.256;2024-03-08T16:23:17;27.15;;;10.93;;
8642;SDS011;4359;49.358;11.256;2024-03-08T16:25:43;19.25;;;11.10;;
8642;SDS011;4359;49.358;11.256;2024-03-08T16:28:09;18.15;;;11.35;;
8642;SDS011;4359;49.358;11.256;2024-03-08T16:30:38;20.90;;;11.43;;
8642;SDS011;4359;49.358;11.256;2024-03-08T16:33:13;20.33;;;11.40;;
8642;SDS011;4359;49.358;11.256;2024-03-08T16:35:39;19.13;;;11.52;;
8642;SDS011;4359;49.358;11.256;2024-03-08T16:38:08;20.42;;;11.18;;
8642;SDS011;4359;49.358;11.256;2024-03-08T16:40:38;17.38;;;10.43;;
8642;SDS011;4359;49.358;11.256;2024-03-08T16:43:05;17.75;;;11.23;;
8642;SDS011;4359;49.358;11.256;2024-03-08T16:45:30;17.83;;;10.93;;
8642;SDS011;4359;49.358;11.256;2024-03-08T16:47:56;17.58;;;10.90;;
8642;SDS011;4359;49.358;11.256;2024-03-08T16:50:22;16.98;;;10.80;;
8642;SDS011;4359;49.358;11.256;2024-03-08T16:52:52;18.15;;;10.48;;
8642;SDS011;4359;49.358;11.256;2024-03-08T16:55:17;18.02;;;11.23;;
8642;SDS011;4359;49.358;11.256;2024-03-08T16:57:45;18.65;;;11.35;;
8642;SDS011;4359;49.358;11.256;2024-03-08T17:02:46;18.05;;;11.15;;
8642;SDS011;4359;49.358;11.256;2024-03-08T17:05:13;19.45;;;11.20;;
8642;SDS011;4359;49.358;11.256;2024-03-08T17:07:41;19.48;;;11.50;;
8642;SDS011;4359;49.358;11.256;2024-03-08T17:10:17;18.75;;;11.25;;
8642;SDS011;4359;49.358;11.256;2024-03-08T17:12:44;18.27;;;11.38;;
8642;SDS011;4359;49.358;11.256;2024-03-08T17:15:13;17.00;;;11.10;;
8642;SDS011;4359;49.358;11.256;2024-03-08T17:17:39;19.27;;;11.27;;
8642;SDS011;4359;49.358;11.256;2024-03-08T17:20:11;17.15;;;10.73;;
8642;SDS011;4359;49.358;11.256;2024-03-08T17:22:45;19.73;;;12.00;;
8642;SDS011;4359;49.358;11.256;2024-03-08T17:25:21;18.02;;;10.85;;
8642;SDS011;4359;49.358;11.256;2024-03-08T17:34:14;18.77;;;11.80;;
8642;SDS011;4359;49.358;11.256;2024-03-08T17:40:24;20.17;;;11.85;;
8642;SDS011;4359;49.358;11.256;2024-03-08T17:42:52;23.48;;;12.18;;
8642;SDS011;4359;49.358;11.256;2024-03-08T17:45:25;23.15;;;13.05;;
8642;SDS011;4359;49.358;11.256;2024-03-08T17:47:53;21.52;;;13.43;;
8642;SDS011;4359;49.358;11.256;2024-03-08T17:50:19;22.33;;;13.27;;
8642;SDS011;4359;49.358;11.256;2024-03-08T17:52:47;19.60;;;12.10;;